createdAt,value
2023-03-27T00:00:35.605Z,81.22
2023-03-27T00:03:38.708Z,82.97
2023-03-27T00:06:45.550Z,82.75
2023-03-27T00:09:48.085Z,82.36
2023-03-27T00:12:51.016Z,82.51
2023-03-27T00:15:54.837Z,81.83
2023-03-27T00:18:57.194Z,82.03
2023-03-27T00:22:01.129Z,82.27
2023-03-27T00:25:05.124Z,82.60
2023-03-27T00:28:08.682Z,82.32
2023-03-27T00:31:11.851Z,82.67
2023-03-27T00:34:14.589Z,83.46
2023-03-27T00:37:18.484Z,84.02
2023-03-27T00:40:21.744Z,84.67
2023-03-27T00:43:26.687Z,84.24
2023-03-27T00:46:35.950Z,83.47
2023-03-27T00:49:38.623Z,83.90
2023-03-27T00:52:44.600Z,82.83
2023-03-27T00:55:49.542Z,82.34
2023-03-27T00:58:54.002Z,81.79
2023-03-27T01:01:56.807Z,81.23
2023-03-27T01:04:59.840Z,80.84
2023-03-27T01:08:04.646Z,81.32
2023-03-27T01:11:13.362Z,80.98
2023-03-27T01:14:23.206Z,82.39
2023-03-27T01:17:43.195Z,82.57
2023-03-27T01:21:18.368Z,82.95
2023-03-27T01:24:38.138Z,82.63
2023-03-27T01:28:04.510Z,82.89
2023-03-27T01:31:15.334Z,82.88
2023-03-27T01:34:34.667Z,82.58
2023-03-27T01:37:48.011Z,82.20
2023-03-27T01:40:59.335Z,82.30
2023-03-27T01:44:05.059Z,81.92
2023-03-27T01:47:11.205Z,82.88
2023-03-27T01:50:20.051Z,83.17
2023-03-27T01:53:27.069Z,82.80
2023-03-27T01:56:33.883Z,83.93
2023-03-27T01:59:39.211Z,84.70
2023-03-27T02:02:43.366Z,84.45
2023-03-27T02:05:47.608Z,84.54
2023-03-27T02:08:52.115Z,83.30
2023-03-27T02:11:59.880Z,82.71
2023-03-27T02:15:23.970Z,82.98
2023-03-27T02:18:31.479Z,82.47
2023-03-27T02:21:34.068Z,83.44
2023-03-27T02:24:38.718Z,83.59
2023-03-27T02:27:46.657Z,84.70
2023-03-27T02:31:05.709Z,84.08
2023-03-27T02:34:51.076Z,83.68
2023-03-27T02:37:59.721Z,82.71
2023-03-27T02:41:08.760Z,83.87
2023-03-27T02:44:17.046Z,85.02
2023-03-27T02:47:24.632Z,86.88
2023-03-27T02:50:30.021Z,86.19
2023-03-27T02:53:36.752Z,85.33
2023-03-27T02:56:44.738Z,85.17
2023-03-27T02:59:51.995Z,85.55
2023-03-27T03:03:00.165Z,84.23
2023-03-27T03:06:07.016Z,85.00
2023-03-27T03:09:10.383Z,84.56
2023-03-27T03:12:12.911Z,84.54
2023-03-27T03:15:18.628Z,85.45
2023-03-27T03:18:21.219Z,84.40
2023-03-27T03:21:24.411Z,85.13
2023-03-27T03:24:27.618Z,84.64
2023-03-27T03:27:31.207Z,84.70
2023-03-27T03:30:37.428Z,85.25
2023-03-27T03:33:40.092Z,85.91
2023-03-27T03:36:43.072Z,85.33
2023-03-27T03:39:45.652Z,84.05
2023-03-27T03:42:49.128Z,85.11
2023-03-27T03:45:54.077Z,85.19
2023-03-27T03:48:58.347Z,85.73
2023-03-27T03:52:03.563Z,84.88
2023-03-27T03:55:08.735Z,84.82
2023-03-27T03:58:11.710Z,84.24
2023-03-27T04:01:15.676Z,84.32
2023-03-27T04:04:18.422Z,84.21
2023-03-27T04:07:21.854Z,83.17
2023-03-27T04:10:24.620Z,83.16
2023-03-27T04:13:27.292Z,82.66
2023-03-27T04:16:31.228Z,82.75
2023-03-27T04:19:33.773Z,82.94
2023-03-27T04:22:38.105Z,81.53
2023-03-27T04:25:41.137Z,81.66
2023-03-27T04:28:44.209Z,80.58
2023-03-27T04:31:48.093Z,79.86
2023-03-27T04:34:51.614Z,79.61
2023-03-27T04:37:54.168Z,78.82
2023-03-27T04:40:56.898Z,78.41
2023-03-27T04:43:59.599Z,77.64
2023-03-27T04:47:03.634Z,77.17
2023-03-27T04:50:08.027Z,76.49
2023-03-27T04:53:10.835Z,76.12
2023-03-27T04:56:13.337Z,77.22
2023-03-27T04:59:16.458Z,74.79
2023-03-27T05:02:21.231Z,73.45
2023-03-27T05:05:24.896Z,71.72
2023-03-27T05:08:27.405Z,72.17
2023-03-27T05:11:30.073Z,71.69
2023-03-27T05:14:32.677Z,70.83
2023-03-27T05:17:40.717Z,71.73
2023-03-27T05:20:43.853Z,71.65
2023-03-27T05:23:46.406Z,71.26
2023-03-27T05:26:49.081Z,70.69
2023-03-27T05:29:51.784Z,72.58
2023-03-27T05:32:59.240Z,70.41
2023-03-27T05:36:04.618Z,70.59
2023-03-27T05:39:07.301Z,69.59
2023-03-27T05:42:09.900Z,70.08
2023-03-27T05:45:13.069Z,68.46
2023-03-27T05:48:17.385Z,69.64
2023-03-27T05:51:19.940Z,70.52
2023-03-27T05:54:22.681Z,68.80
2023-03-27T05:57:25.999Z,68.90
2023-03-27T06:00:31.878Z,67.64
2023-03-27T06:03:38.517Z,67.33
2023-03-27T06:06:41.817Z,66.97
2023-03-27T06:09:45.154Z,67.48
2023-03-27T06:12:48.984Z,66.04
2023-03-27T06:15:54.728Z,65.72
2023-03-27T06:18:58.986Z,64.73
2023-03-27T06:22:01.691Z,65.14
2023-03-27T06:25:05.728Z,64.14
2023-03-27T06:28:09.125Z,64.92
2023-03-27T06:31:12.015Z,64.73
2023-03-27T06:34:15.910Z,64.84
2023-03-27T06:37:18.326Z,65.18
2023-03-27T06:40:22.887Z,65.35
2023-03-27T06:43:25.867Z,63.24
2023-03-27T06:46:42.850Z,63.28
2023-03-27T06:49:49.268Z,62.72
2023-03-27T06:52:51.768Z,61.42
2023-03-27T06:55:54.517Z,61.09
2023-03-27T06:58:57.701Z,60.63
2023-03-27T07:02:00.391Z,60.84
2023-03-27T07:05:05.522Z,60.55
2023-03-27T07:08:21.801Z,59.25
2023-03-27T07:11:27.027Z,60.51
2023-03-27T07:14:29.585Z,60.29
2023-03-27T07:17:42.114Z,60.19
2023-03-27T07:20:52.313Z,59.35
2023-03-27T07:23:54.702Z,59.00
2023-03-27T07:26:57.430Z,58.16
2023-03-27T07:30:01.385Z,57.65
2023-03-27T07:33:04.025Z,56.77
2023-03-27T07:36:09.558Z,56.04
2023-03-27T07:39:14.170Z,56.23
2023-03-27T07:42:16.983Z,56.94
2023-03-27T07:45:19.900Z,55.26
2023-03-27T07:48:23.067Z,55.33
2023-03-27T07:51:27.458Z,55.33
2023-03-27T07:54:31.319Z,54.63
2023-03-27T07:57:42.454Z,54.30
2023-03-27T08:00:52.893Z,54.51
2023-03-27T08:03:55.710Z,54.83
2023-03-27T08:07:00.573Z,54.50
2023-03-27T08:10:05.023Z,53.96
2023-03-27T08:13:08.388Z,53.19
2023-03-27T08:16:12.418Z,53.75
2023-03-27T08:19:15.155Z,53.26
2023-03-27T08:22:21.036Z,53.56
2023-03-27T08:25:23.587Z,53.10
2023-03-27T08:28:27.424Z,53.59
2023-03-27T08:31:31.134Z,52.70
2023-03-27T08:34:33.808Z,52.28
2023-03-27T08:37:37.749Z,51.70
2023-03-27T08:40:41.699Z,51.04
2023-03-27T08:43:45.639Z,51.26
2023-03-27T08:46:49.191Z,52.23
2023-03-27T08:49:54.175Z,51.88
2023-03-27T08:52:59.446Z,50.35
2023-03-27T08:56:03.296Z,51.71
2023-03-27T08:59:05.720Z,52.03
2023-03-27T09:02:11.428Z,49.28
2023-03-27T09:05:18.590Z,49.22
2023-03-27T09:08:35.784Z,48.42
2023-03-27T09:11:46.902Z,48.37
2023-03-27T09:14:52.958Z,49.21
2023-03-27T09:18:00.088Z,48.15
2023-03-27T09:21:06.403Z,46.71
2023-03-27T09:24:15.592Z,46.95
2023-03-27T09:27:21.877Z,47.15
2023-03-27T09:30:26.401Z,47.88
2023-03-27T09:33:28.992Z,47.62
2023-03-27T09:36:31.970Z,47.48
2023-03-27T09:39:37.017Z,46.56
2023-03-27T09:42:41.072Z,45.16
2023-03-27T10:03:23.400Z,42.40
2023-03-27T10:06:27.972Z,42.63
2023-03-27T10:09:32.105Z,41.81
2023-03-27T10:12:36.374Z,41.31
2023-03-27T10:15:40.357Z,40.60
2023-03-27T10:18:44.476Z,41.56
2023-03-27T10:21:47.175Z,40.48
2023-03-27T10:24:49.897Z,40.53
2023-03-27T10:27:54.800Z,40.67
2023-03-27T10:31:01.885Z,38.64
2023-03-27T10:34:06.598Z,39.13
2023-03-27T10:37:27.241Z,38.79
2023-03-27T10:40:32.045Z,38.47
2023-03-27T10:43:40.202Z,37.02
2023-03-27T10:46:43.528Z,37.99
2023-03-27T10:49:49.681Z,38.94
2023-03-27T10:53:01.711Z,41.12
2023-03-27T10:56:12.262Z,41.18
2023-03-27T10:59:25.462Z,38.89
2023-03-27T11:02:38.906Z,36.47
2023-03-27T11:05:44.623Z,37.06
2023-03-27T11:08:55.965Z,40.66
2023-03-27T11:12:01.055Z,40.07
2023-03-27T11:15:09.100Z,37.36
2023-03-27T11:18:15.393Z,35.72
2023-03-27T11:21:22.181Z,35.31
2023-03-27T11:24:30.969Z,36.76
2023-03-27T11:27:37.119Z,35.90
2023-03-27T11:30:44.358Z,35.76
2023-03-27T11:33:51.333Z,35.36
2023-03-27T11:36:56.303Z,34.29
2023-03-27T11:40:05.105Z,38.05
2023-03-27T11:43:10.879Z,37.89
2023-03-27T11:46:29.675Z,41.16
2023-03-27T11:49:44.736Z,40.99
2023-03-27T11:52:56.634Z,40.75
2023-03-27T11:56:10.902Z,39.78
2023-03-27T11:59:28.334Z,40.80
2023-03-27T12:02:55.032Z,39.76
2023-03-27T12:06:05.373Z,36.76
2023-03-27T12:09:33.590Z,35.35
2023-03-27T12:12:52.001Z,34.63
2023-03-27T12:16:03.119Z,34.39
2023-03-27T12:19:28.479Z,35.10
2023-03-27T12:22:42.445Z,33.67
2023-03-27T12:25:58.126Z,32.99
2023-03-27T12:29:23.426Z,32.56
2023-03-27T12:32:42.897Z,32.36
2023-03-27T12:35:49.343Z,32.64
2023-03-27T12:38:52.940Z,32.19
2023-03-27T12:42:15.959Z,33.83
2023-03-27T12:45:22.442Z,32.71
2023-03-27T12:48:25.969Z,32.28
2023-03-27T12:51:38.755Z,31.99
2023-03-27T12:54:42.387Z,32.22
2023-03-27T12:57:47.639Z,32.97
2023-03-27T13:00:54.637Z,34.87
2023-03-27T13:04:12.792Z,32.52
2023-03-27T13:07:20.755Z,27.10
2023-03-27T13:10:34.759Z,28.79
2023-03-27T13:13:51.631Z,33.14
2023-03-27T13:17:02.143Z,34.72
2023-03-27T13:20:14.157Z,36.95
2023-03-27T13:23:41.732Z,38.40
2023-03-27T13:26:54.023Z,42.54
2023-03-27T13:29:58.031Z,45.84
2023-03-27T13:33:12.000Z,49.48
2023-03-27T13:36:19.741Z,54.64
2023-03-27T13:39:24.611Z,52.78
2023-03-27T13:42:29.407Z,54.53
2023-03-27T13:45:40.094Z,54.87
2023-03-27T13:49:04.827Z,55.82
2023-03-27T13:52:22.906Z,55.55
2023-03-27T13:55:36.876Z,56.28
2023-03-27T13:58:44.703Z,61.23
2023-03-27T14:01:58.037Z,60.99
2023-03-27T14:05:10.904Z,56.47
2023-03-27T14:08:23.591Z,52.19
2023-03-27T14:11:41.865Z,51.40
2023-03-27T14:14:53.945Z,55.30
2023-03-27T14:18:06.678Z,36.85
2023-03-27T14:21:11.678Z,32.42
2023-03-27T14:24:25.558Z,25.27
2023-03-27T14:27:28.057Z,26.85
2023-03-27T14:30:32.596Z,24.78
2023-03-27T14:33:39.139Z,27.28
2023-03-27T14:36:45.940Z,33.44
2023-03-27T14:39:54.158Z,41.25
2023-03-27T14:42:57.874Z,45.98
2023-03-27T14:46:01.521Z,44.12
2023-03-27T14:49:05.717Z,42.16
2023-03-27T14:52:09.000Z,42.54
2023-03-27T14:55:13.596Z,40.57
2023-03-27T14:58:18.542Z,32.38
2023-03-27T15:01:21.305Z,31.69
2023-03-27T15:04:25.708Z,31.57
2023-03-27T15:07:30.500Z,34.54
2023-03-27T15:10:33.601Z,35.29
2023-03-27T15:13:36.845Z,36.78
2023-03-27T15:16:39.901Z,37.01
2023-03-27T15:19:48.870Z,40.46
2023-03-27T15:22:55.407Z,43.22
2023-03-27T15:26:01.710Z,45.09
2023-03-27T15:29:07.708Z,46.76
2023-03-27T15:32:14.609Z,51.42
2023-03-27T15:35:20.613Z,56.53
2023-03-27T15:38:28.876Z,57.96
2023-03-27T15:41:38.564Z,58.16
2023-03-27T15:44:41.298Z,60.10
2023-03-27T15:47:45.468Z,62.61
2023-03-27T15:50:59.514Z,65.64
2023-03-27T15:54:01.963Z,64.93
2023-03-27T15:57:09.768Z,66.05
2023-03-27T16:00:14.929Z,63.81
2023-03-27T16:03:21.351Z,63.80
2023-03-27T16:06:28.182Z,61.34
2023-03-27T16:09:34.898Z,61.32
2023-03-27T16:12:51.905Z,60.56
2023-03-27T16:15:58.785Z,60.83
2023-03-27T16:19:04.021Z,61.60
2023-03-27T16:22:08.338Z,60.40
2023-03-27T16:25:13.134Z,61.46
2023-03-27T16:28:17.558Z,60.15
2023-03-27T16:31:20.952Z,52.50
2023-03-27T16:34:23.771Z,56.42
2023-03-27T16:37:28.329Z,61.17
2023-03-27T16:40:31.115Z,62.57
2023-03-27T16:43:34.026Z,63.18
2023-03-27T16:46:37.202Z,62.96
2023-03-27T16:49:40.067Z,61.57
2023-03-27T16:52:43.982Z,59.65
2023-03-27T16:55:46.561Z,59.81
2023-03-27T16:58:49.120Z,58.31
2023-03-27T17:01:51.656Z,57.84
2023-03-27T17:04:54.197Z,59.23
2023-03-27T17:07:58.181Z,60.55
2023-03-27T17:11:03.014Z,61.41
2023-03-27T17:14:05.832Z,61.60
2023-03-27T17:17:08.501Z,62.61
2023-03-27T17:20:12.036Z,63.12
2023-03-27T17:23:16.282Z,64.58
2023-03-27T17:26:23.635Z,64.51
2023-03-27T17:29:26.370Z,64.49
2023-03-27T17:32:29.066Z,64.80
2023-03-27T17:35:31.758Z,66.56
2023-03-27T17:38:36.089Z,66.26
2023-03-27T17:41:38.604Z,67.47
2023-03-27T17:44:41.508Z,67.58
2023-03-27T17:47:44.477Z,68.33
2023-03-27T17:50:54.785Z,68.97
2023-03-27T17:54:02.112Z,69.61
2023-03-27T17:57:05.352Z,70.23
2023-03-27T18:00:10.515Z,70.96
2023-03-27T18:03:13.407Z,71.03
2023-03-27T18:06:17.636Z,71.10
2023-03-27T18:09:21.717Z,71.10
2023-03-27T18:12:24.356Z,71.44
2023-03-27T18:15:27.081Z,71.16
2023-03-27T18:18:29.651Z,71.78
2023-03-27T18:21:32.192Z,71.66
2023-03-27T18:24:47.661Z,72.06
2023-03-27T18:28:16.094Z,72.31
2023-03-27T18:31:33.364Z,72.43
2023-03-27T18:34:44.870Z,72.27
2023-03-27T18:37:47.514Z,72.49
2023-03-27T18:40:52.144Z,72.21
2023-03-27T18:43:54.648Z,72.37
2023-03-27T18:46:57.152Z,72.32
2023-03-27T18:49:59.836Z,71.74
2023-03-27T18:53:02.815Z,71.35
2023-03-27T18:56:08.028Z,69.47
2023-03-27T18:59:11.071Z,68.54
2023-03-27T19:02:15.406Z,68.09
2023-03-27T19:05:18.332Z,68.55
2023-03-27T19:08:21.520Z,67.74
2023-03-27T19:11:25.987Z,67.59
2023-03-27T19:14:28.566Z,65.81
2023-03-27T19:17:31.162Z,65.00
2023-03-27T19:20:33.775Z,64.18
2023-03-27T19:23:36.311Z,65.60
2023-03-27T19:26:41.011Z,69.75
2023-03-27T19:29:43.543Z,71.63
2023-03-27T19:32:46.327Z,72.66
2023-03-27T19:35:53.114Z,72.49
2023-03-27T19:38:55.724Z,72.38
2023-03-27T19:41:59.621Z,72.08
2023-03-27T19:45:04.260Z,72.54
2023-03-27T19:48:06.937Z,74.45
2023-03-27T19:51:09.557Z,75.43
2023-03-27T19:54:12.050Z,75.03
2023-03-27T19:57:16.157Z,74.56
2023-03-27T20:00:19.823Z,73.23
2023-03-27T20:03:24.009Z,73.79
2023-03-27T20:06:28.802Z,74.33
2023-03-27T20:09:31.386Z,74.23
2023-03-27T20:12:35.229Z,74.91
2023-03-27T20:15:39.916Z,74.94
2023-03-27T20:18:42.723Z,75.87
2023-03-27T20:21:45.349Z,76.15
2023-03-27T20:24:47.875Z,75.71
2023-03-27T20:27:52.140Z,77.13
2023-03-27T20:30:54.683Z,77.40
2023-03-27T20:33:57.138Z,78.56
2023-03-27T20:37:00.789Z,77.36
2023-03-27T20:40:06.139Z,76.63
2023-03-27T20:43:10.426Z,75.60
2023-03-27T20:46:14.124Z,74.01
2023-03-27T20:49:37.608Z,73.67
2023-03-27T20:52:44.954Z,73.10
2023-03-27T20:55:59.057Z,70.61
2023-03-27T20:59:03.920Z,70.50
2023-03-27T21:02:06.883Z,68.29
2023-03-27T21:05:09.670Z,69.04
2023-03-27T21:08:12.274Z,68.77
2023-03-27T21:11:15.131Z,68.58
2023-03-27T21:14:19.249Z,69.21
2023-03-27T21:17:21.818Z,69.57
2023-03-27T21:20:24.479Z,68.75
2023-03-27T21:23:27.062Z,67.73
2023-03-27T21:26:29.668Z,67.38
2023-03-27T21:29:33.658Z,68.35
2023-03-27T21:32:36.485Z,67.10
2023-03-27T21:35:41.378Z,66.39
2023-03-27T21:38:44.820Z,66.32
2023-03-27T21:41:47.286Z,67.17
2023-03-27T21:44:54.859Z,68.29
2023-03-27T21:47:59.367Z,68.94
2023-03-27T21:51:02.726Z,69.77
2023-03-27T21:54:05.607Z,69.94
2023-03-27T21:57:08.316Z,70.83
2023-03-27T22:00:14.443Z,70.49
2023-03-27T22:03:18.535Z,69.30
2023-03-27T22:06:21.058Z,69.92
2023-03-27T22:09:23.542Z,70.29
2023-03-27T22:12:26.188Z,70.30
2023-03-27T22:15:30.396Z,70.63
2023-03-27T22:18:33.183Z,70.78
2023-03-27T22:21:35.870Z,71.14
2023-03-27T22:24:38.708Z,70.67
2023-03-27T22:27:41.343Z,70.74
2023-03-27T22:30:45.256Z,71.94
2023-03-27T22:33:47.762Z,71.92
2023-03-27T22:36:50.305Z,72.49
2023-03-27T22:39:53.062Z,72.45
2023-03-27T22:42:55.934Z,71.90
2023-03-27T22:46:05.669Z,72.06
2023-03-27T22:49:08.426Z,73.26
2023-03-27T22:52:11.054Z,72.25
2023-03-27T22:55:13.518Z,71.12
2023-03-27T22:58:16.494Z,70.19
2023-03-27T23:01:20.485Z,68.97
2023-03-27T23:04:23.095Z,68.43
2023-03-27T23:07:25.666Z,67.93
2023-03-27T23:10:28.133Z,67.69
2023-03-27T23:13:31.886Z,67.15
2023-03-27T23:16:36.717Z,67.76
2023-03-27T23:19:39.406Z,67.47
2023-03-27T23:22:41.977Z,68.08
2023-03-27T23:25:44.507Z,68.62
2023-03-27T23:28:47.152Z,68.32
2023-03-27T23:31:51.224Z,67.70
2023-03-27T23:34:53.712Z,68.46
2023-03-27T23:37:56.863Z,68.92
2023-03-27T23:41:00.598Z,68.80
2023-03-27T23:44:03.195Z,67.97
2023-03-27T23:47:07.278Z,68.27
2023-03-27T23:50:10.414Z,67.13
2023-03-27T23:53:13.368Z,66.62
2023-03-27T23:56:16.101Z,67.03
2023-03-27T23:59:18.662Z,67.22
